Smith Valley, Nevada Weather observations

Data are for 10 minute period ending at time listed.
 Day   Time   Solar   Ave.   Ave.  Ave.  Vector  Max.   Baro.   Total    
  of    of     Rad.   Air    Rel.  Wind   Wind   Wind  Press.  Precip.   
Year   Day            Temp.  Hum.  Speed  Dir.   Gust                    
2014   (PST)  Kw/m2    F      %     mph   deg.    mph    mb.     in.     
-------------------------------------------------------------------------
 261   13:50   0.17   79.3    18   11.9   269    20.8   845.0    0.00 
 261   14:00   0.22   79.6    18   11.7   276    20.8   845.0    0.00 
 261   14:10   0.42   79.6    18   13.5   281    22.6   844.9    0.00 
 261   14:20   0.83   82.4    16   14.1   284    20.6   844.8    0.00 
 261   14:30   0.81   82.7    15   12.0   288    25.6   844.8    0.00 
 261   14:40   0.77   82.8    16   12.6   278    20.8   844.8    0.00 
 261   14:50   0.80   82.6    16   13.8   270    18.9   844.8    0.00 
 261   15:00   0.80   83.3    15    9.5   275    15.5   844.9    0.00 
 261   15:10   0.71   83.4    15    9.3   280    17.0   844.9    0.00 
 261   15:20   0.74   82.8    17   10.0   259    16.5   844.9    0.00 
 261   15:30   0.68   83.4    17   10.1   272    17.0   845.0    0.00 
 261   15:40   0.64   82.3    18    7.8   270    12.6   845.0    0.00 
 261   15:50   0.45   81.8    18    7.4   250    15.0   845.1    0.00 
 261   16:00   0.49   81.4    19    8.7   299    14.1   845.2    0.00 
 261   16:10   0.24   80.1    22    6.7   321    10.2   845.3    0.00 
 261   16:20   0.21   79.1    22    7.6   323    13.5   845.3    0.00 
 261   16:30   0.08   78.0    24    6.6   325    13.9   845.5    0.00 
 261   16:40   0.10   76.4    26    6.1    29    11.5   845.6    0.00 
 261   16:50   0.09   75.7    27   10.0    36    22.4   845.6    0.00 
 261   17:00   0.09   76.2    27    8.5   291    13.7   845.9    0.00 
 261   17:10   0.07   74.9    30    9.5   346    14.0   846.1    0.00 
 261   17:20   0.04   71.9    36   11.0    13    17.5   846.3    0.00 
 261   17:30   0.04   69.1    43   14.3    32    22.4   846.3    0.00 
 261   17:40   0.04   67.9    46   13.7    22    20.4   846.4    0.00 
 261   17:50   0.03   67.6    46   13.2    20    18.6   846.5    0.00 
 261   18:00   0.01   67.7    45   10.8    14    17.8   846.7    0.00 
 261   18:10   0.00   66.5    49    5.3   341     8.9   846.9    0.00 
 261   18:20   0.00   66.4    49    9.2   319    12.9   846.8    0.00 
 261   18:30   0.00   65.8    51    4.7   338     9.9   846.9    0.00 
 261   18:40   0.00   64.6    55    5.8   124    11.6   847.2    0.00 
 261   18:50   0.00   64.1    56    3.2    55     7.2   847.4    0.00 
 261   19:00   0.00   64.0    56    4.9    74     9.3   847.4    0.00 
 261   19:10   0.00   63.2    57    5.1   153     8.0   847.5    0.00 
 261   19:20   0.00   62.3    59    5.9   171     8.2   847.6    0.00 
 261   19:30   0.00   61.8    60    6.6   168     9.1   847.6    0.00 
 261   19:40   0.00   61.6    59    5.9   136     7.5   847.7    0.00 
 261   19:50   0.00   62.4    56    6.6   136     8.1   847.7    0.00 
 261   20:00   0.00   60.9    61    6.1   137     8.2   847.9    0.00 
 261   20:10   0.00   60.5    65    5.7   136     8.6   847.9    0.00 
 261   20:20   0.00   60.0    64    6.0   142     7.0   848.0    0.00 
 261   20:30   0.00   59.4    65    5.0   142     6.6   848.2    0.00 
 261   20:40   0.00   59.7    64    4.8   130     6.3   848.3    0.00 
 261   20:50   0.00   62.3    55    5.4   134    11.3   848.5    0.00 
 261   21:00   0.00   63.7    51    4.7   137     7.6   848.6    0.00 
 261   21:10   0.00   63.4    52    4.8   144     7.5   848.6    0.00 
 261   21:20   0.00   63.0    53    4.3   157     5.6   848.8    0.00 
 261   21:30   0.00   62.8    54    2.7   151     3.7   848.9    0.00 
 261   21:40   0.00   62.7    53    2.5   117     4.4   848.9    0.00 
 261   21:50   0.00   63.9    50    3.5   149     5.1   848.9    0.00 
 261   22:00   0.00   63.0    51    3.7   168     5.2   848.9    0.00 
 261   22:10   0.00   62.0    54    2.5   168     3.6   848.9    0.00 
 261   22:20   0.00   61.2    56    3.0   137     4.7   849.0    0.00 
 261   22:30   0.00   61.1    55    2.9   150     4.1   849.1    0.00 
 261   22:40   0.00   60.3    58    3.7   151     4.4   849.2    0.00 
 261   22:50   0.00   60.0    59    2.6   146     4.0   849.2    0.00 
 261   23:00   0.00   60.5    57    3.1   150     4.2   849.2    0.00 
 261   23:10   0.00   58.9    61    3.6   150     4.5   849.3    0.00 
 261   23:20   0.00   57.9    64    3.6   158     4.5   849.4    0.00 
 261   23:30   0.00   56.9    68    3.7   170     4.9   849.4    0.00 
 261   23:40   100.00  99999.0   99999  99999.0   99999   99999.0   99999.0   99999.00 
 261   23:50   0.00   58.4    62    4.5   130     5.4   849.4    0.00 
 262    0:00   0.00   58.8    62    3.8   134     4.8   849.5    0.00 
 262    0:10   0.00   58.9    62    3.9   144     4.8   849.5    0.00 
 262    0:20   0.00   58.2    64    4.2   154     5.6   849.5    0.00 
 262    0:30   0.00   58.0    62    4.7   141     5.8   849.5    0.00 
 262    0:40   0.00   57.5    62    3.5   146     5.0   849.4    0.00 
 262    0:50   0.00   57.4    63    3.5   181     4.1   849.4    0.00 
 262    1:00   0.00   56.1    63    3.1   202     3.7   849.4    0.00 
 262    1:10   0.00   55.5    66    3.4   153     4.1   849.5    0.00 
 262    1:20   0.00   54.6    66    2.5   123     3.8   849.6    0.00 
 262    1:30   0.00   54.2    66    3.0     7     4.3   849.6    0.00 
 262    1:40   0.00   54.5    68    4.4    85     5.7   849.7    0.00 
 262    1:50   0.00   55.4    63    3.4   116     5.0   849.7    0.00 
 262    2:00   0.00   54.2    64    2.6   141     4.0   849.7    0.00 
 262    2:10   0.00   52.4    67    1.5   110     3.7   849.7    0.00 
 262    2:20   0.00   52.6    66    0.3    24     1.4   849.7    0.00 
 262    2:30   0.00   52.8    66    1.8   134     3.1   849.8    0.00 
 262    2:40   0.00   52.4    68    3.4   145     4.7   849.8    0.00 
 262    2:50   0.00   51.7    71    2.7   137     5.0   849.8    0.00 
 262    3:00   0.00   52.4    69    1.8   132     2.9   849.9    0.00 
 262    3:10   0.00   53.4    66    1.0   176     2.3   849.9    0.00 
 262    3:20   0.00   53.1    67    1.8   137     2.8   849.9    0.00 
 262    3:30   0.00   52.7    68    2.1   165     4.6   849.9    0.00 
 262    3:40   0.00   52.6    68    1.9   112     3.9   849.9    0.00 
 262    3:50   0.00   52.4    64    1.0    83     4.2   850.0    0.00 
 262    4:00   0.00   51.4    67    2.2   135     3.4   850.1    0.00 
 262    4:10   0.00   49.6    72    3.1   143     4.3   850.2    0.00 
 262    4:20   0.00   49.5    73    3.4   155     4.2   850.3    0.00 
 262    4:30   0.00   48.4    75    3.5   150     4.5   850.4    0.00 
 262    4:40   0.00   47.5    75    4.0   151     4.6   850.5    0.00 
 262    4:50   0.00   47.6    75    4.1   141     5.1   850.6    0.00 
 262    5:00   0.00   47.6    75    2.8   167     6.1   850.8    0.00 
 262    5:10   0.00   47.6    74    2.6   149     3.4   850.9    0.00 
 262    5:20   0.00   47.0    75    2.0   193     3.7   851.1    0.00 
 262    5:30   0.00   46.6    76    1.6   106     3.0   851.2    0.00 
 262    5:40   0.00   46.8    76    4.0   152     5.2   851.2    0.00 
 262    5:50   0.01   46.3    80    4.1   166     5.6   851.2    0.00 
 262    6:00   0.01   48.4    76    3.4   146     4.2   851.4    0.00 
 262    6:10   0.02   48.1    73    3.8   142     5.0   851.4    0.00 
 262    6:20   0.04   48.5    72    1.9   190     3.7   851.6    0.00 
 262    6:30   0.06   48.6    72    3.4   208     5.2   851.7    0.00 
 262    6:40   0.08   51.2    67    2.8   156     3.7   851.7    0.00 
 262    6:50   0.10   51.7    70    2.4   138     3.1   851.8    0.00 
 262    7:00   0.13   53.8    66    2.5    96     4.2   851.8    0.00 
 262    7:10   0.17   57.4    57    2.2    72     3.4   851.7    0.00 
 262    7:20   0.20   59.3    52    3.5    73     4.9   851.7    0.00 
 262    7:30   0.23   60.3    51    3.5    80     5.0   851.7    0.00 
 262    7:40   0.26   61.8    48    2.3    66     3.6   851.6    0.00 
 262    7:50   0.29   63.4    45    1.9    66     3.5   851.7    0.00 
 262    8:00   0.33   63.9    45    2.1    29     4.2   851.8    0.00 
 262    8:10   0.36   65.5    43    1.3    47     3.1   851.9    0.00 
 262    8:20   0.39   66.1    42    1.2   294     2.7   852.0    0.00 
 262    8:30   0.42   66.9    40    1.8   309     3.2   852.1    0.00 
 262    8:40   0.45   67.8    38    1.5   282     3.9   852.2    0.00 
 262    8:50   0.48   68.6    37    1.3   346     3.7   852.3    0.00 
 262    9:00   0.51   68.8    36    3.4     8     7.8   852.4    0.00 
 262    9:10   0.55   68.0    37    3.7    37     7.4   852.5    0.00 
 262    9:20   0.59   68.2    36    4.7   343     7.8   852.5    0.00 
 262    9:30   0.61   69.0    35    3.4    40     8.3   852.4    0.00 
 262    9:40   0.63   68.9    36    4.4    58     8.7   852.4    0.00 
 262    9:50   0.65   69.1    36    4.3    67     9.5   852.4    0.00 
 262   10:00   0.67   69.0    36    4.0     1     7.6   852.4    0.00 
 262   10:10   0.69   69.7    35    5.4    29     9.9   852.4    0.00 
 262   10:20   0.72   69.8    35    3.8    12     8.3   852.3    0.00 
 262   10:30   0.74   70.3    34    5.1    16     9.6   852.2    0.00 
 262   10:40   0.75   71.1    34    3.9   351     9.1   852.1    0.00 
 262   10:50   0.77   71.3    33    3.7   339     8.8   852.1    0.00 
 262   11:00   0.78   72.0    32    6.6    21    15.5   851.9    0.00 
 262   11:10   0.80   72.1    32    8.6   352    14.2   851.8    0.00 
 262   11:20   0.81   72.1    32    6.2     9    11.8   851.8    0.00 
 262   11:30   0.82   73.1    32    8.6    38    15.8   851.7    0.00 
 262   11:40   0.82   74.0    31    9.1    17    15.2   851.5    0.00 
 262   11:50   0.83   74.7    30   10.4    41    20.2   851.5    0.00 
 262   12:00   0.83   74.6    29    9.0    48    19.9   851.4    0.00 
 262   12:10   0.83   74.7    29    9.3    28    15.4   851.3    0.00 
 262   12:20   0.83   75.0    28    9.6    49    16.4   851.3    0.00 
 262   12:30   0.82   75.6    28    9.3    67    15.1   851.2    0.00 
 262   12:40   0.81   75.8    28    7.5    53    13.9   851.1    0.00 
 262   12:50   0.81   75.7    28    8.3    55    12.9   850.9    0.00 
 262   13:00   0.80   76.4    27    9.8    41    14.2   850.8    0.00 
 262   13:10   0.79   76.6    27    8.5    47    14.2   850.7    0.00 
 262   13:20   0.78   77.2    26    9.1    44    16.7   850.6    0.00 
 262   13:30   0.77   77.5    26   10.6    32    17.5   850.4    0.00 
 262   13:40   0.75   77.6    26    9.4    40    15.9   850.3    0.00 

Return to Smith Valley graphs page.


Western Regional Climate Center,wrcc@dri.edu